sensor_id;sensor_type;location;lat;lon;timestamp;temperature;humidity
18105;DHT22;9179;50.968;3.134;2023-07-08T00:00:12;20.40;95.20
18105;DHT22;9179;50.968;3.134;2023-07-08T00:02:42;20.40;95.40
18105;DHT22;9179;50.968;3.134;2023-07-08T00:05:09;20.40;95.40
18105;DHT22;9179;50.968;3.134;2023-07-08T00:07:37;20.30;95.40
18105;DHT22;9179;50.968;3.134;2023-07-08T00:10:16;20.30;95.60
18105;DHT22;9179;50.968;3.134;2023-07-08T00:12:44;20.30;96.00
18105;DHT22;9179;50.968;3.134;2023-07-08T00:15:11;20.30;95.90
18105;DHT22;9179;50.968;3.134;2023-07-08T00:17:38;20.40;96.00
18105;DHT22;9179;50.968;3.134;2023-07-08T00:20:15;20.40;95.90
18105;DHT22;9179;50.968;3.134;2023-07-08T00:22:43;20.50;95.90
18105;DHT22;9179;50.968;3.134;2023-07-08T00:25:12;20.50;95.70
18105;DHT22;9179;50.968;3.134;2023-07-08T00:27:39;20.50;95.70
18105;DHT22;9179;50.968;3.134;2023-07-08T00:30:25;20.50;95.70
18105;DHT22;9179;50.968;3.134;2023-07-08T00:32:53;20.50;95.90
18105;DHT22;9179;50.968;3.134;2023-07-08T00:35:30;20.60;95.80
18105;DHT22;9179;50.968;3.134;2023-07-08T00:37:57;20.70;95.80
18105;DHT22;9179;50.968;3.134;2023-07-08T00:40:28;20.70;95.60
18105;DHT22;9179;50.968;3.134;2023-07-08T00:42:56;20.80;95.60
18105;DHT22;9179;50.968;3.134;2023-07-08T00:45:35;20.80;95.50
18105;DHT22;9179;50.968;3.134;2023-07-08T00:48:18;20.80;95.60
18105;DHT22;9179;50.968;3.134;2023-07-08T00:50:47;20.80;95.50
18105;DHT22;9179;50.968;3.134;2023-07-08T00:53:23;20.80;95.40
18105;DHT22;9179;50.968;3.134;2023-07-08T00:55:52;20.70;95.50
18105;DHT22;9179;50.968;3.134;2023-07-08T00:58:21;20.70;95.50
18105;DHT22;9179;50.968;3.134;2023-07-08T01:00:49;20.70;95.50
18105;DHT22;9179;50.968;3.134;2023-07-08T01:03:18;20.70;95.50
18105;DHT22;9179;50.968;3.134;2023-07-08T01:05:47;20.60;95.60
18105;DHT22;9179;50.968;3.134;2023-07-08T01:08:15;20.60;95.50
18105;DHT22;9179;50.968;3.134;2023-07-08T01:10:47;20.60;95.60
18105;DHT22;9179;50.968;3.134;2023-07-08T01:13:16;20.60;95.80
18105;DHT22;9179;50.968;3.134;2023-07-08T01:15:46;20.60;95.80
18105;DHT22;9179;50.968;3.134;2023-07-08T01:18:15;20.80;95.80
18105;DHT22;9179;50.968;3.134;2023-07-08T01:20:43;20.90;95.70
18105;DHT22;9179;50.968;3.134;2023-07-08T01:23:14;20.90;95.60
18105;DHT22;9179;50.968;3.134;2023-07-08T01:25:43;20.90;95.60
18105;DHT22;9179;50.968;3.134;2023-07-08T01:28:11;20.90;95.50
18105;DHT22;9179;50.968;3.134;2023-07-08T01:30:40;20.90;95.50
18105;DHT22;9179;50.968;3.134;2023-07-08T01:33:14;20.80;95.50
18105;DHT22;9179;50.968;3.134;2023-07-08T01:35:43;20.80;95.60
18105;DHT22;9179;50.968;3.134;2023-07-08T01:38:11;20.80;95.60
18105;DHT22;9179;50.968;3.134;2023-07-08T01:40:48;20.70;95.70
18105;DHT22;9179;50.968;3.134;2023-07-08T01:43:16;20.70;95.70
18105;DHT22;9179;50.968;3.134;2023-07-08T01:45:43;20.70;95.70
18105;DHT22;9179;50.968;3.134;2023-07-08T01:48:13;20.60;95.80
18105;DHT22;9179;50.968;3.134;2023-07-08T01:50:42;20.60;95.90
18105;DHT22;9179;50.968;3.134;2023-07-08T01:53:15;20.60;95.90
18105;DHT22;9179;50.968;3.134;2023-07-08T01:55:43;20.60;96.00
18105;DHT22;9179;50.968;3.134;2023-07-08T01:58:10;20.60;96.00
18105;DHT22;9179;50.968;3.134;2023-07-08T02:00:37;20.50;96.00
18105;DHT22;9179;50.968;3.134;2023-07-08T02:03:04;20.50;96.00
18105;DHT22;9179;50.968;3.134;2023-07-08T02:05:31;20.40;96.10
18105;DHT22;9179;50.968;3.134;2023-07-08T02:07:58;20.40;96.20
18105;DHT22;9179;50.968;3.134;2023-07-08T02:10:25;20.40;96.20
18105;DHT22;9179;50.968;3.134;2023-07-08T02:12:53;20.30;96.30
18105;DHT22;9179;50.968;3.134;2023-07-08T02:15:20;20.20;96.40
18105;DHT22;9179;50.968;3.134;2023-07-08T02:17:47;20.10;96.50
18105;DHT22;9179;50.968;3.134;2023-07-08T02:20:15;20.10;96.60
18105;DHT22;9179;50.968;3.134;2023-07-08T02:22:42;20.00;96.70
18105;DHT22;9179;50.968;3.134;2023-07-08T02:25:09;19.90;96.80
18105;DHT22;9179;50.968;3.134;2023-07-08T02:27:36;19.80;97.00
18105;DHT22;9179;50.968;3.134;2023-07-08T02:30:06;19.70;97.40
18105;DHT22;9179;50.968;3.134;2023-07-08T02:32:33;19.80;97.60
18105;DHT22;9179;50.968;3.134;2023-07-08T02:35:01;19.80;97.60
18105;DHT22;9179;50.968;3.134;2023-07-08T02:37:28;19.80;97.70
18105;DHT22;9179;50.968;3.134;2023-07-08T02:39:55;19.80;97.80
18105;DHT22;9179;50.968;3.134;2023-07-08T02:42:22;19.90;97.90
18105;DHT22;9179;50.968;3.134;2023-07-08T02:44:49;19.80;97.90
18105;DHT22;9179;50.968;3.134;2023-07-08T02:47:18;19.80;98.10
18105;DHT22;9179;50.968;3.134;2023-07-08T02:49:45;19.80;98.20
18105;DHT22;9179;50.968;3.134;2023-07-08T02:52:12;19.80;98.20
18105;DHT22;9179;50.968;3.134;2023-07-08T02:54:39;19.70;98.20
18105;DHT22;9179;50.968;3.134;2023-07-08T02:57:06;19.70;98.30
18105;DHT22;9179;50.968;3.134;2023-07-08T02:59:33;19.60;98.50
18105;DHT22;9179;50.968;3.134;2023-07-08T03:02:00;19.60;98.60
18105;DHT22;9179;50.968;3.134;2023-07-08T03:04:30;19.60;98.60
18105;DHT22;9179;50.968;3.134;2023-07-08T03:07:05;19.60;98.70
18105;DHT22;9179;50.968;3.134;2023-07-08T03:09:37;19.50;98.70
18105;DHT22;9179;50.968;3.134;2023-07-08T03:12:04;19.40;98.80
18105;DHT22;9179;50.968;3.134;2023-07-08T03:14:31;19.40;99.00
18105;DHT22;9179;50.968;3.134;2023-07-08T03:16:58;19.30;99.20
18105;DHT22;9179;50.968;3.134;2023-07-08T03:19:25;19.20;99.30
18105;DHT22;9179;50.968;3.134;2023-07-08T03:21:53;19.10;99.40
18105;DHT22;9179;50.968;3.134;2023-07-08T03:24:20;19.00;99.60
18105;DHT22;9179;50.968;3.134;2023-07-08T03:26:47;19.00;99.90
18105;DHT22;9179;50.968;3.134;2023-07-08T03:29:20;19.10;99.90
18105;DHT22;9179;50.968;3.134;2023-07-08T03:31:47;19.10;99.90
18105;DHT22;9179;50.968;3.134;2023-07-08T03:34:15;19.10;99.90
18105;DHT22;9179;50.968;3.134;2023-07-08T03:36:44;19.10;99.90
18105;DHT22;9179;50.968;3.134;2023-07-08T03:39:16;19.10;99.90
18105;DHT22;9179;50.968;3.134;2023-07-08T03:41:43;19.10;99.90
18105;DHT22;9179;50.968;3.134;2023-07-08T03:44:10;19.10;99.90
18105;DHT22;9179;50.968;3.134;2023-07-08T03:46:36;19.10;99.90
18105;DHT22;9179;50.968;3.134;2023-07-08T03:49:04;19.10;99.90
18105;DHT22;9179;50.968;3.134;2023-07-08T03:51:34;19.20;99.90
18105;DHT22;9179;50.968;3.134;2023-07-08T03:54:01;19.30;99.90
18105;DHT22;9179;50.968;3.134;2023-07-08T03:56:30;19.40;99.90
18105;DHT22;9179;50.968;3.134;2023-07-08T03:58:57;19.40;99.90
18105;DHT22;9179;50.968;3.134;2023-07-08T04:01:25;19.50;99.90
18105;DHT22;9179;50.968;3.134;2023-07-08T04:03:53;19.60;99.90
18105;DHT22;9179;50.968;3.134;2023-07-08T04:06:20;19.60;99.90
18105;DHT22;9179;50.968;3.134;2023-07-08T04:08:47;19.70;99.90
18105;DHT22;9179;50.968;3.134;2023-07-08T04:11:16;19.80;99.90
18105;DHT22;9179;50.968;3.134;2023-07-08T04:13:45;19.70;99.90
18105;DHT22;9179;50.968;3.134;2023-07-08T04:16:16;19.70;99.90
18105;DHT22;9179;50.968;3.134;2023-07-08T04:18:43;19.70;99.90
18105;DHT22;9179;50.968;3.134;2023-07-08T04:21:10;19.80;99.90
18105;DHT22;9179;50.968;3.134;2023-07-08T04:23:37;19.80;99.90
18105;DHT22;9179;50.968;3.134;2023-07-08T04:26:04;19.80;99.90
18105;DHT22;9179;50.968;3.134;2023-07-08T04:28:31;19.90;99.90
18105;DHT22;9179;50.968;3.134;2023-07-08T04:30:59;20.10;99.90
18105;DHT22;9179;50.968;3.134;2023-07-08T04:33:26;20.20;99.90
18105;DHT22;9179;50.968;3.134;2023-07-08T04:35:53;20.30;99.90
18105;DHT22;9179;50.968;3.134;2023-07-08T04:38:22;20.50;99.90
18105;DHT22;9179;50.968;3.134;2023-07-08T04:46:04;21.40;99.90
18105;DHT22;9179;50.968;3.134;2023-07-08T04:48:32;21.80;99.90
18105;DHT22;9179;50.968;3.134;2023-07-08T04:50:59;22.40;99.90
18105;DHT22;9179;50.968;3.134;2023-07-08T04:53:25;22.90;99.90
18105;DHT22;9179;50.968;3.134;2023-07-08T04:55:54;23.30;99.50
18105;DHT22;9179;50.968;3.134;2023-07-08T04:58:22;23.50;98.90
18105;DHT22;9179;50.968;3.134;2023-07-08T05:00:49;23.80;98.30
18105;DHT22;9179;50.968;3.134;2023-07-08T05:03:17;24.10;97.70
18105;DHT22;9179;50.968;3.134;2023-07-08T05:05:44;24.30;97.10
18105;DHT22;9179;50.968;3.134;2023-07-08T05:08:12;24.50;96.50
18105;DHT22;9179;50.968;3.134;2023-07-08T05:10:39;24.90;95.90
18105;DHT22;9179;50.968;3.134;2023-07-08T05:13:06;25.20;95.40
18105;DHT22;9179;50.968;3.134;2023-07-08T05:15:33;25.50;94.80
18105;DHT22;9179;50.968;3.134;2023-07-08T05:18:00;25.90;94.30
18105;DHT22;9179;50.968;3.134;2023-07-08T05:20:29;26.30;93.70
18105;DHT22;9179;50.968;3.134;2023-07-08T05:22:56;26.50;93.10
18105;DHT22;9179;50.968;3.134;2023-07-08T05:25:23;27.00;92.60
18105;DHT22;9179;50.968;3.134;2023-07-08T05:27:50;26.90;92.00
18105;DHT22;9179;50.968;3.134;2023-07-08T05:30:18;26.80;91.30
18105;DHT22;9179;50.968;3.134;2023-07-08T05:32:45;26.70;91.30
18105;DHT22;9179;50.968;3.134;2023-07-08T05:35:13;26.70;91.10
18105;DHT22;9179;50.968;3.134;2023-07-08T05:37:41;26.90;90.60
18105;DHT22;9179;50.968;3.134;2023-07-08T05:40:12;27.10;90.40
18105;DHT22;9179;50.968;3.134;2023-07-08T05:42:40;27.40;90.00
18105;DHT22;9179;50.968;3.134;2023-07-08T05:45:07;28.00;89.10
18105;DHT22;9179;50.968;3.134;2023-07-08T05:47:36;28.10;87.80
18105;DHT22;9179;50.968;3.134;2023-07-08T05:50:03;28.30;86.40
18105;DHT22;9179;50.968;3.134;2023-07-08T05:52:30;28.40;86.20
18105;DHT22;9179;50.968;3.134;2023-07-08T05:54:58;28.70;85.20
18105;DHT22;9179;50.968;3.134;2023-07-08T05:57:25;29.00;84.30
18105;DHT22;9179;50.968;3.134;2023-07-08T05:59:52;28.90;83.30
18105;DHT22;9179;50.968;3.134;2023-07-08T06:02:19;29.00;82.50
18105;DHT22;9179;50.968;3.134;2023-07-08T06:04:48;29.20;81.80
18105;DHT22;9179;50.968;3.134;2023-07-08T06:07:15;29.30;81.30
18105;DHT22;9179;50.968;3.134;2023-07-08T06:09:43;29.70;80.90
18105;DHT22;9179;50.968;3.134;2023-07-08T06:12:12;29.60;80.00
18105;DHT22;9179;50.968;3.134;2023-07-08T06:14:39;29.90;79.70
18105;DHT22;9179;50.968;3.134;2023-07-08T06:17:06;29.80;78.90
18105;DHT22;9179;50.968;3.134;2023-07-08T06:19:42;30.00;78.50
18105;DHT22;9179;50.968;3.134;2023-07-08T06:22:09;30.20;77.90
18105;DHT22;9179;50.968;3.134;2023-07-08T06:24:36;30.60;77.70
18105;DHT22;9179;50.968;3.134;2023-07-08T06:27:03;31.20;77.00
18105;DHT22;9179;50.968;3.134;2023-07-08T06:29:33;31.50;76.30
18105;DHT22;9179;50.968;3.134;2023-07-08T06:32:00;32.20;74.50
18105;DHT22;9179;50.968;3.134;2023-07-08T06:34:27;32.10;74.20
18105;DHT22;9179;50.968;3.134;2023-07-08T06:36:54;32.70;74.00
18105;DHT22;9179;50.968;3.134;2023-07-08T06:39:21;33.40;72.60
18105;DHT22;9179;50.968;3.134;2023-07-08T06:41:48;33.90;71.30
18105;DHT22;9179;50.968;3.134;2023-07-08T06:44:15;34.50;69.30
18105;DHT22;9179;50.968;3.134;2023-07-08T06:46:43;34.40;67.70
18105;DHT22;9179;50.968;3.134;2023-07-08T06:49:10;34.40;66.90
18105;DHT22;9179;50.968;3.134;2023-07-08T06:51:38;34.30;66.80
18105;DHT22;9179;50.968;3.134;2023-07-08T06:54:06;34.90;66.00
18105;DHT22;9179;50.968;3.134;2023-07-08T06:56:37;35.00;65.50
18105;DHT22;9179;50.968;3.134;2023-07-08T06:59:05;35.20;63.70
18105;DHT22;9179;50.968;3.134;2023-07-08T07:01:32;35.00;62.70
18105;DHT22;9179;50.968;3.134;2023-07-08T07:04:00;35.00;63.00
18105;DHT22;9179;50.968;3.134;2023-07-08T07:06:28;34.90;61.80
18105;DHT22;9179;50.968;3.134;2023-07-08T07:08:55;35.10;61.70
18105;DHT22;9179;50.968;3.134;2023-07-08T07:11:22;35.30;61.40
18105;DHT22;9179;50.968;3.134;2023-07-08T07:13:49;35.40;60.90
18105;DHT22;9179;50.968;3.134;2023-07-08T07:16:16;35.70;60.00
18105;DHT22;9179;50.968;3.134;2023-07-08T07:18:43;36.00;59.40
18105;DHT22;9179;50.968;3.134;2023-07-08T07:21:11;36.00;59.30
18105;DHT22;9179;50.968;3.134;2023-07-08T07:23:38;36.40;59.10
18105;DHT22;9179;50.968;3.134;2023-07-08T07:26:05;36.60;58.30
18105;DHT22;9179;50.968;3.134;2023-07-08T07:28:33;37.10;57.50
18105;DHT22;9179;50.968;3.134;2023-07-08T07:31:00;37.40;57.10
18105;DHT22;9179;50.968;3.134;2023-07-08T07:33:27;37.60;57.20
18105;DHT22;9179;50.968;3.134;2023-07-08T07:35:54;37.50;56.90
18105;DHT22;9179;50.968;3.134;2023-07-08T07:38:22;37.80;56.70
18105;DHT22;9179;50.968;3.134;2023-07-08T07:40:54;38.00;57.10
18105;DHT22;9179;50.968;3.134;2023-07-08T07:43:21;38.30;57.10
18105;DHT22;9179;50.968;3.134;2023-07-08T07:45:50;38.40;56.10
18105;DHT22;9179;50.968;3.134;2023-07-08T07:48:17;38.00;55.20
18105;DHT22;9179;50.968;3.134;2023-07-08T07:50:45;38.10;56.70
18105;DHT22;9179;50.968;3.134;2023-07-08T07:53:12;38.00;55.70
18105;DHT22;9179;50.968;3.134;2023-07-08T07:55:41;38.30;55.80
18105;DHT22;9179;50.968;3.134;2023-07-08T07:58:08;38.20;55.30
18105;DHT22;9179;50.968;3.134;2023-07-08T08:00:37;38.20;55.60
18105;DHT22;9179;50.968;3.134;2023-07-08T08:05:39;38.00;55.90
18105;DHT22;9179;50.968;3.134;2023-07-08T08:08:06;38.50;55.80
18105;DHT22;9179;50.968;3.134;2023-07-08T08:10:33;38.70;54.80
18105;DHT22;9179;50.968;3.134;2023-07-08T08:13:02;38.80;55.10
18105;DHT22;9179;50.968;3.134;2023-07-08T08:15:29;39.10;54.60
18105;DHT22;9179;50.968;3.134;2023-07-08T08:17:56;39.40;54.70
18105;DHT22;9179;50.968;3.134;2023-07-08T08:20:25;39.70;53.80
18105;DHT22;9179;50.968;3.134;2023-07-08T08:22:52;39.10;53.70
18105;DHT22;9179;50.968;3.134;2023-07-08T08:25:20;39.00;54.10
18105;DHT22;9179;50.968;3.134;2023-07-08T08:27:47;39.10;53.90
18105;DHT22;9179;50.968;3.134;2023-07-08T08:30:17;39.50;53.80
18105;DHT22;9179;50.968;3.134;2023-07-08T08:32:43;39.90;53.10
18105;DHT22;9179;50.968;3.134;2023-07-08T08:35:10;39.80;53.20
18105;DHT22;9179;50.968;3.134;2023-07-08T08:37:37;39.90;52.80
18105;DHT22;9179;50.968;3.134;2023-07-08T08:40:05;40.30;53.00
18105;DHT22;9179;50.968;3.134;2023-07-08T08:42:38;40.80;52.20
18105;DHT22;9179;50.968;3.134;2023-07-08T08:45:08;40.90;51.90
18105;DHT22;9179;50.968;3.134;2023-07-08T08:47:39;41.30;51.30
18105;DHT22;9179;50.968;3.134;2023-07-08T08:50:19;41.60;50.30
18105;DHT22;9179;50.968;3.134;2023-07-08T08:52:50;41.10;50.80
18105;DHT22;9179;50.968;3.134;2023-07-08T08:55:21;41.70;50.10
18105;DHT22;9179;50.968;3.134;2023-07-08T08:57:54;42.00;49.90
18105;DHT22;9179;50.968;3.134;2023-07-08T09:00:28;42.80;48.70
18105;DHT22;9179;50.968;3.134;2023-07-08T09:03:01;42.90;48.10
18105;DHT22;9179;50.968;3.134;2023-07-08T09:05:30;42.80;49.00
18105;DHT22;9179;50.968;3.134;2023-07-08T09:08:03;43.30;48.20
18105;DHT22;9179;50.968;3.134;2023-07-08T09:10:42;43.80;47.20
18105;DHT22;9179;50.968;3.134;2023-07-08T09:13:17;44.50;46.20
18105;DHT22;9179;50.968;3.134;2023-07-08T09:15:46;44.40;46.40
18105;DHT22;9179;50.968;3.134;2023-07-08T09:18:20;44.30;46.00
18105;DHT22;9179;50.968;3.134;2023-07-08T09:20:50;44.30;45.30
18105;DHT22;9179;50.968;3.134;2023-07-08T09:23:22;44.30;46.00
18105;DHT22;9179;50.968;3.134;2023-07-08T09:25:57;44.40;45.70
18105;DHT22;9179;50.968;3.134;2023-07-08T09:28:36;44.60;46.60
18105;DHT22;9179;50.968;3.134;2023-07-08T09:31:06;44.00;46.20
18105;DHT22;9179;50.968;3.134;2023-07-08T09:33:37;44.00;46.80
18105;DHT22;9179;50.968;3.134;2023-07-08T09:36:17;43.90;46.60
18105;DHT22;9179;50.968;3.134;2023-07-08T09:38:48;43.80;46.00
18105;DHT22;9179;50.968;3.134;2023-07-08T09:41:29;43.80;46.60
18105;DHT22;9179;50.968;3.134;2023-07-08T09:44:10;43.50;45.90
18105;DHT22;9179;50.968;3.134;2023-07-08T09:46:39;43.30;46.20
18105;DHT22;9179;50.968;3.134;2023-07-08T09:49:16;43.30;46.90
18105;DHT22;9179;50.968;3.134;2023-07-08T09:51:44;43.40;45.50
18105;DHT22;9179;50.968;3.134;2023-07-08T09:54:11;43.70;45.90
18105;DHT22;9179;50.968;3.134;2023-07-08T09:56:41;44.40;46.40
18105;DHT22;9179;50.968;3.134;2023-07-08T09:59:12;44.30;45.30
18105;DHT22;9179;50.968;3.134;2023-07-08T10:01:41;44.30;45.00
18105;DHT22;9179;50.968;3.134;2023-07-08T10:04:08;44.60;44.70
18105;DHT22;9179;50.968;3.134;2023-07-08T10:06:36;45.20;44.60
18105;DHT22;9179;50.968;3.134;2023-07-08T10:09:08;45.00;44.00
18105;DHT22;9179;50.968;3.134;2023-07-08T10:11:38;45.00;43.90
18105;DHT22;9179;50.968;3.134;2023-07-08T10:14:09;45.90;44.10
18105;DHT22;9179;50.968;3.134;2023-07-08T10:16:38;46.60;43.00
18105;DHT22;9179;50.968;3.134;2023-07-08T10:19:09;46.30;42.10
18105;DHT22;9179;50.968;3.134;2023-07-08T10:21:45;45.60;43.20
18105;DHT22;9179;50.968;3.134;2023-07-08T10:24:24;44.40;43.10
18105;DHT22;9179;50.968;3.134;2023-07-08T10:27:05;44.30;44.00
18105;DHT22;9179;50.968;3.134;2023-07-08T10:29:44;44.90;43.40
18105;DHT22;9179;50.968;3.134;2023-07-08T10:32:21;44.80;43.20
18105;DHT22;9179;50.968;3.134;2023-07-08T10:34:58;45.00;43.40
18105;DHT22;9179;50.968;3.134;2023-07-08T10:37:39;45.00;43.60
18105;DHT22;9179;50.968;3.134;2023-07-08T10:40:21;44.90;42.90
18105;DHT22;9179;50.968;3.134;2023-07-08T10:43:15;44.60;43.50
18105;DHT22;9179;50.968;3.134;2023-07-08T10:45:52;45.00;43.30
18105;DHT22;9179;50.968;3.134;2023-07-08T10:48:36;43.90;43.30
18105;DHT22;9179;50.968;3.134;2023-07-08T10:51:15;44.00;43.50
18105;DHT22;9179;50.968;3.134;2023-07-08T10:56:43;44.90;43.70
18105;DHT22;9179;50.968;3.134;2023-07-08T10:59:30;45.20;42.80
18105;DHT22;9179;50.968;3.134;2023-07-08T11:02:15;45.20;42.30
18105;DHT22;9179;50.968;3.134;2023-07-08T11:04:54;44.80;42.90
18105;DHT22;9179;50.968;3.134;2023-07-08T11:07:32;45.20;42.80
18105;DHT22;9179;50.968;3.134;2023-07-08T11:10:09;45.50;42.10
18105;DHT22;9179;50.968;3.134;2023-07-08T11:12:42;44.80;42.40
18105;DHT22;9179;50.968;3.134;2023-07-08T11:15:16;44.20;42.50
18105;DHT22;9179;50.968;3.134;2023-07-08T11:17:49;43.70;43.00
18105;DHT22;9179;50.968;3.134;2023-07-08T11:20:23;42.90;44.00
18105;DHT22;9179;50.968;3.134;2023-07-08T11:22:56;42.40;43.60
18105;DHT22;9179;50.968;3.134;2023-07-08T11:25:26;41.40;44.20
18105;DHT22;9179;50.968;3.134;2023-07-08T11:27:56;41.00;44.80
18105;DHT22;9179;50.968;3.134;2023-07-08T11:30:29;40.70;45.80
18105;DHT22;9179;50.968;3.134;2023-07-08T11:33:00;40.60;46.00
18105;DHT22;9179;50.968;3.134;2023-07-08T11:35:35;40.70;46.00
18105;DHT22;9179;50.968;3.134;2023-07-08T11:38:03;40.60;46.00
18105;DHT22;9179;50.968;3.134;2023-07-08T11:40:49;40.90;46.30
18105;DHT22;9179;50.968;3.134;2023-07-08T11:43:17;40.50;46.20
18105;DHT22;9179;50.968;3.134;2023-07-08T11:45:45;40.00;46.70
18105;DHT22;9179;50.968;3.134;2023-07-08T11:48:13;40.10;47.00
18105;DHT22;9179;50.968;3.134;2023-07-08T11:50:43;40.20;46.90
18105;DHT22;9179;50.968;3.134;2023-07-08T11:53:13;40.10;47.00
18105;DHT22;9179;50.968;3.134;2023-07-08T11:55:47;40.20;47.10
18105;DHT22;9179;50.968;3.134;2023-07-08T11:58:20;40.50;46.80
18105;DHT22;9179;50.968;3.134;2023-07-08T12:00:54;41.00;46.60
18105;DHT22;9179;50.968;3.134;2023-07-08T12:03:32;41.40;46.30
18105;DHT22;9179;50.968;3.134;2023-07-08T12:06:00;41.10;46.10
18105;DHT22;9179;50.968;3.134;2023-07-08T12:08:34;41.00;46.30
18105;DHT22;9179;50.968;3.134;2023-07-08T12:11:08;41.20;46.70
18105;DHT22;9179;50.968;3.134;2023-07-08T12:13:37;43.10;46.20
18105;DHT22;9179;50.968;3.134;2023-07-08T12:16:09;44.40;45.00
18105;DHT22;9179;50.968;3.134;2023-07-08T12:18:39;44.20;44.20
18105;DHT22;9179;50.968;3.134;2023-07-08T12:21:12;43.40;44.10
18105;DHT22;9179;50.968;3.134;2023-07-08T12:23:44;42.80;44.90
18105;DHT22;9179;50.968;3.134;2023-07-08T12:26:13;42.50;45.00
18105;DHT22;9179;50.968;3.134;2023-07-08T12:28:42;42.10;45.40
18105;DHT22;9179;50.968;3.134;2023-07-08T12:31:14;42.20;45.70
18105;DHT22;9179;50.968;3.134;2023-07-08T12:33:41;41.60;46.00
18105;DHT22;9179;50.968;3.134;2023-07-08T12:36:11;40.90;46.70
18105;DHT22;9179;50.968;3.134;2023-07-08T12:38:42;40.30;48.20
18105;DHT22;9179;50.968;3.134;2023-07-08T12:41:13;39.90;47.90
18105;DHT22;9179;50.968;3.134;2023-07-08T12:43:40;40.10;48.10
18105;DHT22;9179;50.968;3.134;2023-07-08T12:46:10;40.80;47.70
18105;DHT22;9179;50.968;3.134;2023-07-08T12:48:37;41.50;47.20
18105;DHT22;9179;50.968;3.134;2023-07-08T12:51:06;42.10;46.40
18105;DHT22;9179;50.968;3.134;2023-07-08T12:53:36;42.40;45.90
18105;DHT22;9179;50.968;3.134;2023-07-08T12:56:04;42.50;46.10
18105;DHT22;9179;50.968;3.134;2023-07-08T12:58:36;42.00;47.60
18105;DHT22;9179;50.968;3.134;2023-07-08T13:01:04;42.30;47.70
18105;DHT22;9179;50.968;3.134;2023-07-08T13:03:35;44.00;47.10
18105;DHT22;9179;50.968;3.134;2023-07-08T13:06:03;45.00;46.30
18105;DHT22;9179;50.968;3.134;2023-07-08T13:08:34;43.70;46.30
18105;DHT22;9179;50.968;3.134;2023-07-08T13:11:03;42.10;47.10
18105;DHT22;9179;50.968;3.134;2023-07-08T13:13:35;40.80;48.40
18105;DHT22;9179;50.968;3.134;2023-07-08T13:16:04;40.30;49.30
18105;DHT22;9179;50.968;3.134;2023-07-08T13:18:33;40.50;49.20
18105;DHT22;9179;50.968;3.134;2023-07-08T13:21:02;40.30;49.20
18105;DHT22;9179;50.968;3.134;2023-07-08T13:23:30;39.60;49.80
18105;DHT22;9179;50.968;3.134;2023-07-08T13:25:57;39.00;50.40
18105;DHT22;9179;50.968;3.134;2023-07-08T13:28:25;38.70;50.80
18105;DHT22;9179;50.968;3.134;2023-07-08T13:30:56;39.00;50.80
18105;DHT22;9179;50.968;3.134;2023-07-08T13:33:28;39.80;50.30
18105;DHT22;9179;50.968;3.134;2023-07-08T13:35:55;40.80;49.80
18105;DHT22;9179;50.968;3.134;2023-07-08T13:38:24;40.40;49.30
18105;DHT22;9179;50.968;3.134;2023-07-08T13:40:54;38.90;50.20
18105;DHT22;9179;50.968;3.134;2023-07-08T13:43:23;37.70;51.40
18105;DHT22;9179;50.968;3.134;2023-07-08T13:45:51;36.80;52.60
18105;DHT22;9179;50.968;3.134;2023-07-08T13:48:24;35.80;53.60
18105;DHT22;9179;50.968;3.134;2023-07-08T13:50:58;35.10;54.60
18105;DHT22;9179;50.968;3.134;2023-07-08T13:53:32;34.70;55.20
18105;DHT22;9179;50.968;3.134;2023-07-08T13:56:01;34.40;55.60
18105;DHT22;9179;50.968;3.134;2023-07-08T13:58:29;34.60;56.00
18105;DHT22;9179;50.968;3.134;2023-07-08T14:00:57;34.90;55.60
18105;DHT22;9179;50.968;3.134;2023-07-08T14:03:26;35.20;55.10
18105;DHT22;9179;50.968;3.134;2023-07-08T14:05:53;35.20;55.20
18105;DHT22;9179;50.968;3.134;2023-07-08T14:08:20;35.10;55.20
18105;DHT22;9179;50.968;3.134;2023-07-08T14:10:48;35.20;55.00
18105;DHT22;9179;50.968;3.134;2023-07-08T14:13:15;35.40;55.10
18105;DHT22;9179;50.968;3.134;2023-07-08T14:15:43;37.60;53.20
18105;DHT22;9179;50.968;3.134;2023-07-08T14:18:12;40.70;50.50
18105;DHT22;9179;50.968;3.134;2023-07-08T14:20:41;43.80;47.20
18105;DHT22;9179;50.968;3.134;2023-07-08T14:23:10;44.60;45.60
18105;DHT22;9179;50.968;3.134;2023-07-08T14:25:38;46.10;44.20
18105;DHT22;9179;50.968;3.134;2023-07-08T14:28:07;45.90;43.40
18105;DHT22;9179;50.968;3.134;2023-07-08T14:30:36;45.50;43.80
18105;DHT22;9179;50.968;3.134;2023-07-08T14:33:07;46.10;43.20
18105;DHT22;9179;50.968;3.134;2023-07-08T14:35:34;46.60;42.80
18105;DHT22;9179;50.968;3.134;2023-07-08T14:38:04;46.60;42.80
18105;DHT22;9179;50.968;3.134;2023-07-08T14:40:34;46.80;42.70
18105;DHT22;9179;50.968;3.134;2023-07-08T14:43:05;46.50;42.40
18105;DHT22;9179;50.968;3.134;2023-07-08T14:45:38;45.90;42.80
18105;DHT22;9179;50.968;3.134;2023-07-08T14:48:08;45.70;43.00
18105;DHT22;9179;50.968;3.134;2023-07-08T14:50:35;45.50;42.60
18105;DHT22;9179;50.968;3.134;2023-07-08T14:53:04;44.90;42.80
18105;DHT22;9179;50.968;3.134;2023-07-08T14:55:31;44.80;43.10
18105;DHT22;9179;50.968;3.134;2023-07-08T14:57:58;44.90;43.00
18105;DHT22;9179;50.968;3.134;2023-07-08T15:00:25;45.70;42.60
18105;DHT22;9179;50.968;3.134;2023-07-08T15:02:53;46.00;42.30
18105;DHT22;9179;50.968;3.134;2023-07-08T15:05:22;46.70;42.00
18105;DHT22;9179;50.968;3.134;2023-07-08T15:07:49;47.40;41.00
18105;DHT22;9179;50.968;3.134;2023-07-08T15:10:19;47.60;40.10
18105;DHT22;9179;50.968;3.134;2023-07-08T15:12:46;45.40;41.00
18105;DHT22;9179;50.968;3.134;2023-07-08T15:15:16;43.20;43.10
18105;DHT22;9179;50.968;3.134;2023-07-08T15:17:44;44.60;42.20
18105;DHT22;9179;50.968;3.134;2023-07-08T15:20:12;45.40;41.10
18105;DHT22;9179;50.968;3.134;2023-07-08T15:22:41;45.90;40.50
18105;DHT22;9179;50.968;3.134;2023-07-08T15:25:09;43.60;41.60
18105;DHT22;9179;50.968;3.134;2023-07-08T15:27:39;40.90;44.20
18105;DHT22;9179;50.968;3.134;2023-07-08T15:30:15;40.10;46.40
18105;DHT22;9179;50.968;3.134;2023-07-08T15:32:43;42.50;44.10
18105;DHT22;9179;50.968;3.134;2023-07-08T15:35:13;42.90;43.70
18105;DHT22;9179;50.968;3.134;2023-07-08T15:37:41;42.30;43.90
18105;DHT22;9179;50.968;3.134;2023-07-08T15:40:08;39.60;46.60
18105;DHT22;9179;50.968;3.134;2023-07-08T15:42:38;38.70;48.10
18105;DHT22;9179;50.968;3.134;2023-07-08T15:45:13;38.00;48.70
18105;DHT22;9179;50.968;3.134;2023-07-08T15:47:41;37.50;49.90
18105;DHT22;9179;50.968;3.134;2023-07-08T15:50:12;37.20;50.30
18105;DHT22;9179;50.968;3.134;2023-07-08T15:52:39;36.80;51.30
18105;DHT22;9179;50.968;3.134;2023-07-08T15:55:07;36.30;52.10
18105;DHT22;9179;50.968;3.134;2023-07-08T15:57:40;35.60;54.00
18105;DHT22;9179;50.968;3.134;2023-07-08T16:00:15;34.70;55.20
18105;DHT22;9179;50.968;3.134;2023-07-08T16:02:47;34.40;56.00
18105;DHT22;9179;50.968;3.134;2023-07-08T16:05:18;34.30;56.40
18105;DHT22;9179;50.968;3.134;2023-07-08T16:07:46;34.10;56.50
18105;DHT22;9179;50.968;3.134;2023-07-08T16:10:13;34.10;56.60